createdAt,value
2017-08-25T00:02:17.225Z,16.40
2017-08-25T00:04:44.701Z,16.40
2017-08-25T00:07:12.967Z,15.40
2017-08-25T00:09:40.428Z,15.40
2017-08-25T00:12:08.662Z,15.70
2017-08-25T00:14:36.162Z,15.70
2017-08-25T00:17:03.626Z,15.90
2017-08-25T00:19:31.103Z,16.00
2017-08-25T00:21:58.611Z,15.30
2017-08-25T00:24:26.091Z,15.30
2017-08-25T00:26:53.606Z,15.60
2017-08-25T00:29:21.088Z,15.80
2017-08-25T00:31:48.547Z,15.80
2017-08-25T00:34:16.033Z,15.90
2017-08-25T00:36:44.271Z,15.70
2017-08-25T00:39:11.789Z,15.60
2017-08-25T00:41:39.239Z,15.90
2017-08-25T00:44:06.740Z,15.90
2017-08-25T00:46:34.189Z,15.90
2017-08-25T00:49:01.691Z,15.80
2017-08-25T00:51:29.202Z,15.70
2017-08-25T00:53:56.660Z,15.80
2017-08-25T00:56:24.148Z,15.90
2017-08-25T00:58:51.619Z,15.80
2017-08-25T01:01:19.082Z,15.80
2017-08-25T01:03:46.584Z,15.10
2017-08-25T01:06:14.046Z,14.80
2017-08-25T01:08:41.543Z,15.20
2017-08-25T01:11:09.023Z,15.30
2017-08-25T01:13:36.476Z,15.50
2017-08-25T01:16:03.963Z,15.10
2017-08-25T01:18:31.419Z,15.40
2017-08-25T01:20:58.912Z,15.30
2017-08-25T01:23:26.384Z,15.40
2017-08-25T01:25:53.882Z,15.30
2017-08-25T01:28:21.352Z,14.80
2017-08-25T01:30:48.824Z,14.70
2017-08-25T01:33:16.315Z,15.00
2017-08-25T01:35:43.783Z,15.20
2017-08-25T01:38:11.279Z,15.20
2017-08-25T01:40:39.500Z,15.20
2017-08-25T01:43:06.981Z,15.20
2017-08-25T01:45:34.501Z,15.20
2017-08-25T01:48:01.963Z,15.20
2017-08-25T01:50:29.450Z,15.00
2017-08-25T01:52:56.956Z,15.10
2017-08-25T01:55:24.438Z,15.10
2017-08-25T01:57:51.961Z,14.80
2017-08-25T02:00:19.439Z,14.80
2017-08-25T02:02:46.909Z,15.00
2017-08-25T02:05:14.387Z,15.00
2017-08-25T02:07:41.847Z,14.80
2017-08-25T02:10:09.360Z,14.60
2017-08-25T02:12:36.811Z,14.40
2017-08-25T02:15:04.307Z,14.30
2017-08-25T02:17:31.787Z,14.10
2017-08-25T02:19:59.259Z,14.10
2017-08-25T02:22:26.733Z,14.40
2017-08-25T02:24:54.211Z,14.40
2017-08-25T02:27:21.699Z,14.70
2017-08-25T02:29:49.171Z,14.60
2017-08-25T02:32:16.676Z,14.70
2017-08-25T02:34:44.155Z,14.40
2017-08-25T02:37:11.625Z,14.20
2017-08-25T02:39:39.105Z,14.10
2017-08-25T02:42:06.576Z,13.90
2017-08-25T02:44:34.053Z,13.70
2017-08-25T02:47:01.559Z,13.40
2017-08-25T02:49:29.025Z,13.40
2017-08-25T02:51:56.520Z,13.80
2017-08-25T02:54:24.009Z,14.00
2017-08-25T02:56:52.243Z,14.50
2017-08-25T02:59:19.739Z,14.50
2017-08-25T04:57:06.960Z,20.20
2017-08-25T05:00:47.050Z,20.70
2017-08-25T05:08:16.089Z,21.90
2017-08-25T05:10:43.155Z,21.50
2017-08-25T05:16:55.244Z,18.90
2017-08-25T05:19:22.276Z,16.10
2017-08-25T05:21:49.318Z,15.30
2017-08-25T05:24:16.376Z,14.80
2017-08-25T05:26:43.409Z,14.70
2017-08-25T05:29:10.461Z,14.70
2017-08-25T05:31:37.534Z,14.80
2017-08-25T05:34:04.589Z,14.70
2017-08-25T05:36:31.637Z,14.80
2017-08-25T05:38:58.667Z,14.80
2017-08-25T05:41:25.739Z,14.90
2017-08-25T05:43:52.784Z,14.90
2017-08-25T05:46:19.861Z,14.80
2017-08-25T05:48:46.922Z,15.00
2017-08-25T05:51:13.935Z,15.20
2017-08-25T05:53:41.008Z,15.00
2017-08-25T05:56:08.011Z,15.10
2017-08-25T05:58:35.040Z,15.10
2017-08-25T06:01:02.086Z,15.20
2017-08-25T06:03:29.114Z,15.00
2017-08-25T06:05:56.168Z,15.10
2017-08-25T06:08:23.211Z,15.40
2017-08-25T06:10:50.235Z,15.60
2017-08-25T06:13:17.291Z,15.70
2017-08-25T06:15:44.323Z,15.80
2017-08-25T06:18:11.351Z,15.60
2017-08-25T06:20:38.414Z,15.60
2017-08-25T06:23:05.463Z,15.40
2017-08-25T06:25:32.497Z,15.50
2017-08-25T06:27:59.506Z,15.50
2017-08-25T06:30:26.552Z,15.50
2017-08-25T06:32:53.607Z,15.90
2017-08-25T06:35:20.662Z,15.90
2017-08-25T06:37:47.674Z,16.10
2017-08-25T06:40:14.726Z,15.90
2017-08-25T06:42:41.782Z,16.20
2017-08-25T06:45:08.856Z,16.20
2017-08-25T06:47:35.898Z,16.40
2017-08-25T06:50:02.939Z,16.40
2017-08-25T06:52:29.991Z,16.40
2017-08-25T06:54:57.038Z,16.40
2017-08-25T06:57:24.091Z,16.20
2017-08-25T06:59:51.110Z,16.40
2017-08-25T07:02:18.158Z,16.70
2017-08-25T07:04:45.203Z,16.30
2017-08-25T07:07:12.252Z,16.60
2017-08-25T07:09:39.278Z,16.50
2017-08-25T07:12:06.332Z,16.20
2017-08-25T07:14:33.347Z,16.10
2017-08-25T07:17:00.391Z,16.60
2017-08-25T07:19:27.431Z,16.60
2017-08-25T07:21:54.434Z,16.90
2017-08-25T07:24:21.494Z,17.20
2017-08-25T07:26:48.524Z,17.50
2017-08-25T07:29:15.563Z,17.70
2017-08-25T07:31:42.617Z,17.80
2017-08-25T07:34:09.645Z,17.70
2017-08-25T07:36:36.675Z,17.70
2017-08-25T07:39:04.483Z,17.80
2017-08-25T07:41:31.517Z,17.80
2017-08-25T07:43:58.568Z,18.30
2017-08-25T07:46:25.588Z,18.70
2017-08-25T07:48:52.632Z,19.00
2017-08-25T07:51:19.682Z,18.90
2017-08-25T07:53:46.718Z,18.60
2017-08-25T07:56:13.761Z,18.60
2017-08-25T07:58:40.841Z,19.40
2017-08-25T08:01:07.905Z,19.50
2017-08-25T08:03:34.929Z,19.90
2017-08-25T08:06:01.958Z,19.90
2017-08-25T08:08:29.006Z,19.40
2017-08-25T08:10:56.041Z,19.70
2017-08-25T08:13:23.093Z,20.40
2017-08-25T08:15:50.114Z,20.20
2017-08-25T08:18:17.138Z,20.10
2017-08-25T08:20:44.170Z,20.30
2017-08-25T08:23:11.198Z,20.70
2017-08-25T08:25:38.239Z,21.10
2017-08-25T08:28:05.256Z,21.10
2017-08-25T08:30:32.353Z,21.30
2017-08-25T08:32:59.358Z,21.30
2017-08-25T08:35:26.391Z,21.20
2017-08-25T08:37:53.423Z,21.80
2017-08-25T08:40:20.459Z,22.00
2017-08-25T08:42:47.486Z,22.10
2017-08-25T08:45:14.503Z,21.60
2017-08-25T08:47:41.571Z,21.70
2017-08-25T08:50:08.599Z,22.10
2017-08-25T08:52:35.637Z,22.50
2017-08-25T08:55:02.689Z,22.60
2017-08-25T08:57:29.728Z,22.20
2017-08-25T08:59:56.754Z,22.00
2017-08-25T09:02:23.803Z,22.00
2017-08-25T09:04:50.821Z,22.50
2017-08-25T09:07:17.881Z,22.80
2017-08-25T09:09:44.915Z,23.10
2017-08-25T09:12:11.990Z,22.90
2017-08-25T09:14:39.003Z,23.20
2017-08-25T09:17:06.045Z,23.60
2017-08-25T09:19:33.066Z,23.60
2017-08-25T09:22:00.130Z,23.20
2017-08-25T09:24:27.166Z,23.30
2017-08-25T09:26:54.196Z,23.50
2017-08-25T09:29:21.253Z,23.70
2017-08-25T09:31:48.298Z,23.90
2017-08-25T09:34:15.355Z,24.20
2017-08-25T09:36:42.411Z,24.00
2017-08-25T09:39:09.437Z,23.90
2017-08-25T09:41:36.569Z,23.70
2017-08-25T09:44:03.570Z,23.50
2017-08-25T09:46:30.640Z,23.80
2017-08-25T09:48:58.469Z,23.90
2017-08-25T09:51:25.490Z,23.90
2017-08-25T09:53:52.565Z,23.80
2017-08-25T09:56:19.606Z,23.90
2017-08-25T09:58:46.626Z,24.00
2017-08-25T10:01:13.669Z,24.10
2017-08-25T10:03:41.427Z,24.60
2017-08-25T10:06:08.487Z,24.80
2017-08-25T10:08:35.498Z,24.50
2017-08-25T10:11:02.536Z,24.30
2017-08-25T10:13:29.588Z,24.10
2017-08-25T10:15:56.612Z,24.10
2017-08-25T10:18:23.634Z,24.20
2017-08-25T10:20:50.699Z,24.60
2017-08-25T10:23:17.727Z,24.50
2017-08-25T10:25:44.773Z,24.70
2017-08-25T10:28:11.799Z,24.80
2017-08-25T10:30:38.839Z,24.90
2017-08-25T10:33:11.741Z,25.10
2017-08-25T10:35:44.768Z,24.80
2017-08-25T10:38:17.650Z,25.00
2017-08-25T10:40:50.562Z,25.00
2017-08-25T10:43:23.641Z,25.20
2017-08-25T10:45:50.665Z,25.10
2017-08-25T10:48:17.706Z,25.20
2017-08-25T10:50:44.767Z,25.40
2017-08-25T10:53:11.784Z,25.20
2017-08-25T10:55:38.826Z,25.30
2017-08-25T10:58:05.888Z,25.10
2017-08-25T11:00:32.915Z,25.20
2017-08-25T11:02:59.939Z,25.10
2017-08-25T11:05:26.990Z,25.10
2017-08-25T11:07:54.015Z,24.80
2017-08-25T11:10:21.042Z,24.80
2017-08-25T11:12:48.084Z,24.90
2017-08-25T11:15:15.106Z,24.80
2017-08-25T11:17:42.146Z,24.90
2017-08-25T11:20:09.189Z,24.90
2017-08-25T11:22:36.244Z,25.20
2017-08-25T11:25:03.299Z,25.20
2017-08-25T11:27:30.337Z,25.40
2017-08-25T11:29:57.386Z,25.50
2017-08-25T11:32:24.397Z,25.10
2017-08-25T11:34:51.471Z,25.30
2017-08-25T11:37:18.487Z,25.20
2017-08-25T11:39:45.543Z,25.50
2017-08-25T11:42:12.614Z,25.60
2017-08-25T11:44:39.623Z,25.60
2017-08-25T11:47:06.660Z,25.70
2017-08-25T11:49:33.700Z,25.80
2017-08-25T11:52:00.727Z,25.80
2017-08-25T11:54:27.784Z,25.80
2017-08-25T11:56:54.821Z,25.80
2017-08-25T11:59:21.871Z,26.00
2017-08-25T12:01:48.938Z,25.80
2017-08-25T12:04:15.953Z,25.90
2017-08-25T12:06:43.748Z,26.10
2017-08-25T12:09:10.798Z,26.10
2017-08-25T12:11:37.818Z,26.10
2017-08-25T12:14:04.867Z,26.10
2017-08-25T12:16:32.702Z,26.40
2017-08-25T12:18:59.743Z,26.40
2017-08-25T12:21:26.842Z,26.30
2017-08-25T12:23:53.858Z,25.90
2017-08-25T12:26:20.891Z,25.80
2017-08-25T12:28:47.954Z,26.00
2017-08-25T12:31:14.979Z,26.10
2017-08-25T12:33:42.028Z,26.20
2017-08-25T12:36:09.050Z,26.10
2017-08-25T12:38:36.131Z,26.30
2017-08-25T12:41:03.142Z,26.20
2017-08-25T12:43:30.169Z,26.20
2017-08-25T12:45:57.202Z,26.20
2017-08-25T12:48:24.265Z,26.30
2017-08-25T12:50:51.318Z,26.60
2017-08-25T12:53:18.344Z,26.40
2017-08-25T12:55:45.386Z,26.30
2017-08-25T12:58:12.426Z,26.50
2017-08-25T13:00:39.455Z,26.70
2017-08-25T13:03:06.484Z,26.70
2017-08-25T13:05:33.553Z,26.80
2017-08-25T13:08:00.574Z,26.80
2017-08-25T13:10:27.621Z,27.00
2017-08-25T13:12:54.670Z,27.00
2017-08-25T13:15:21.720Z,27.00
2017-08-25T13:17:48.787Z,26.90
2017-08-25T13:20:15.813Z,26.70
2017-08-25T13:22:42.872Z,26.50
2017-08-25T13:25:09.907Z,26.40
2017-08-25T13:27:36.918Z,26.50
2017-08-25T13:30:03.958Z,26.70
2017-08-25T13:32:30.998Z,26.60
2017-08-25T13:34:58.042Z,26.70
2017-08-25T13:37:25.087Z,27.00
2017-08-25T13:39:52.111Z,27.20
2017-08-25T13:42:19.174Z,27.20
2017-08-25T13:44:46.192Z,27.10
2017-08-25T13:47:13.218Z,27.10
2017-08-25T13:49:40.266Z,27.30
2017-08-25T13:52:07.295Z,27.20
2017-08-25T13:54:34.347Z,27.40
2017-08-25T13:57:01.372Z,27.30
2017-08-25T13:59:28.422Z,27.30
2017-08-25T14:01:55.438Z,27.50
2017-08-25T14:04:22.518Z,27.50
2017-08-25T14:06:49.531Z,27.60
2017-08-25T14:09:16.558Z,27.40
2017-08-25T14:11:43.622Z,27.10
2017-08-25T14:14:10.649Z,27.20
2017-08-25T14:16:37.750Z,27.20
2017-08-25T14:19:04.776Z,27.50
2017-08-25T14:21:31.804Z,27.50
2017-08-25T14:23:58.867Z,27.60
2017-08-25T14:26:25.883Z,27.50
2017-08-25T14:28:52.908Z,27.30
2017-08-25T14:31:19.954Z,27.60
2017-08-25T14:33:47.030Z,27.50
2017-08-25T14:36:14.068Z,27.50
2017-08-25T14:38:41.086Z,27.60
2017-08-25T14:41:08.147Z,27.70
2017-08-25T14:43:35.159Z,27.70
2017-08-25T14:46:02.226Z,27.60
2017-08-25T14:48:29.257Z,27.80
2017-08-25T14:50:56.839Z,27.80
2017-08-25T14:53:23.912Z,27.70
2017-08-25T14:55:50.950Z,27.70
2017-08-25T14:58:18.006Z,27.90
2017-08-25T15:00:45.039Z,27.80
2017-08-25T15:03:12.079Z,27.80
2017-08-25T15:05:39.148Z,27.90
2017-08-25T15:08:06.176Z,27.90
2017-08-25T15:10:33.389Z,27.80
2017-08-25T15:13:00.554Z,27.90
2017-08-25T15:15:27.655Z,27.80
2017-08-25T15:17:54.722Z,27.80
2017-08-25T15:20:21.747Z,27.80
2017-08-25T15:22:48.773Z,27.80
2017-08-25T15:25:15.835Z,27.90
2017-08-25T15:27:42.889Z,28.10
2017-08-25T15:30:10.102Z,28.00
2017-08-25T15:32:37.157Z,27.80
2017-08-25T15:35:04.252Z,28.00
2017-08-25T15:37:31.286Z,27.80
2017-08-25T15:39:58.328Z,27.70
2017-08-25T15:42:25.374Z,27.70
2017-08-25T15:44:52.465Z,27.30
2017-08-25T15:47:19.525Z,27.40
2017-08-25T15:49:46.551Z,27.50
2017-08-25T15:52:13.602Z,27.30
2017-08-25T15:54:40.621Z,27.10
2017-08-25T15:57:07.653Z,27.00
2017-08-25T15:59:34.769Z,26.90
2017-08-25T16:02:01.810Z,26.90
2017-08-25T16:04:28.916Z,26.90
2017-08-25T16:06:56.737Z,26.90
2017-08-25T16:09:23.773Z,26.90
2017-08-25T16:11:50.849Z,26.80
2017-08-25T16:14:17.900Z,26.80
2017-08-25T16:16:44.960Z,26.80
2017-08-25T16:19:12.061Z,26.70
2017-08-25T16:21:39.241Z,26.70
2017-08-25T16:24:06.287Z,26.70
2017-08-25T16:26:33.314Z,26.60
2017-08-25T16:29:00.378Z,26.60
2017-08-25T16:31:27.513Z,26.60
2017-08-25T16:33:54.560Z,26.50
2017-08-25T16:36:21.620Z,26.50
2017-08-25T16:38:48.651Z,26.40
2017-08-25T16:41:15.694Z,26.50
2017-08-25T16:43:42.729Z,26.40
2017-08-25T16:46:09.797Z,26.30
2017-08-25T16:48:36.821Z,26.10
2017-08-25T16:51:04.626Z,26.10
2017-08-25T16:53:31.679Z,26.10
2017-08-25T16:55:58.709Z,26.00
2017-08-25T16:58:25.748Z,25.90
2017-08-25T17:00:52.781Z,25.80
2017-08-25T17:03:19.790Z,25.80
2017-08-25T17:05:46.830Z,25.80
2017-08-25T17:08:13.858Z,25.60
2017-08-25T17:10:40.897Z,25.50
2017-08-25T17:13:07.910Z,25.50
2017-08-25T17:15:34.924Z,25.40
2017-08-25T17:18:01.995Z,25.40
2017-08-25T17:20:29.010Z,25.20
2017-08-25T17:22:56.040Z,25.20
2017-08-25T17:25:23.080Z,25.20
2017-08-25T17:27:50.111Z,25.10
2017-08-25T17:30:17.174Z,25.10
2017-08-25T17:32:44.216Z,25.00
2017-08-25T17:35:11.253Z,24.90
2017-08-25T17:37:38.298Z,24.90
2017-08-25T17:40:05.329Z,24.90
2017-08-25T17:42:32.353Z,24.80
2017-08-25T17:44:59.427Z,24.80
2017-08-25T17:47:26.454Z,24.70
2017-08-25T17:49:53.537Z,24.60
2017-08-25T17:52:20.559Z,24.50
2017-08-25T17:54:47.591Z,24.60
2017-08-25T17:57:14.639Z,24.50
2017-08-25T17:59:41.679Z,24.40
2017-08-25T18:02:08.744Z,24.30
2017-08-25T18:04:35.753Z,24.10
2017-08-25T18:07:02.821Z,24.20
2017-08-25T18:09:29.890Z,24.00
2017-08-25T18:11:56.919Z,23.70
2017-08-25T18:14:23.980Z,23.60
2017-08-25T18:16:51.019Z,23.40
2017-08-25T18:19:18.077Z,23.40
2017-08-25T18:21:45.135Z,23.40
2017-08-25T18:24:12.171Z,23.40
2017-08-25T18:26:39.185Z,23.20
2017-08-25T18:29:06.261Z,23.10
2017-08-25T18:31:33.271Z,23.00
2017-08-25T18:34:00.345Z,22.90
2017-08-25T18:36:28.139Z,22.90
2017-08-25T18:38:55.194Z,22.90
2017-08-25T18:41:22.218Z,22.90
2017-08-25T18:43:49.241Z,22.80
2017-08-25T18:46:16.303Z,22.70
2017-08-25T18:48:43.341Z,22.90
2017-08-25T18:51:10.384Z,22.90
2017-08-25T18:53:37.440Z,23.00
2017-08-25T18:56:04.476Z,22.70
2017-08-25T18:58:31.498Z,22.50
2017-08-25T19:00:58.539Z,22.60
2017-08-25T19:03:25.562Z,22.50
2017-08-25T19:05:52.634Z,22.30
2017-08-25T19:08:19.667Z,22.10
2017-08-25T19:10:46.736Z,22.30
2017-08-25T19:13:13.798Z,22.50
2017-08-25T19:15:40.811Z,22.60
2017-08-25T19:18:07.872Z,22.30
2017-08-25T19:20:34.897Z,22.40
2017-08-25T19:23:01.935Z,22.40
2017-08-25T19:25:28.978Z,22.30
2017-08-25T19:27:56.043Z,22.20
2017-08-25T19:30:23.098Z,22.10
2017-08-25T19:32:50.138Z,22.10
2017-08-25T19:35:17.167Z,21.70
2017-08-25T19:37:44.227Z,21.50
2017-08-25T19:40:11.307Z,21.40
2017-08-25T19:42:38.330Z,21.30
2017-08-25T19:45:05.362Z,21.20
2017-08-25T19:47:32.430Z,21.00
2017-08-25T19:49:59.451Z,21.00
2017-08-25T19:52:26.600Z,20.80
2017-08-25T19:54:53.667Z,20.60
2017-08-25T19:57:20.673Z,20.70
2017-08-25T19:59:47.718Z,20.80
2017-08-25T20:02:14.783Z,21.10
2017-08-25T20:04:41.811Z,21.20
2017-08-25T20:07:09.640Z,21.30
2017-08-25T20:09:36.667Z,21.30
2017-08-25T20:12:03.731Z,21.40
2017-08-25T20:14:30.747Z,21.30
2017-08-25T20:16:57.959Z,21.00
2017-08-25T20:19:27.230Z,21.00
2017-08-25T20:21:54.235Z,21.00
2017-08-25T20:24:21.289Z,21.10
2017-08-25T20:26:48.346Z,20.90
2017-08-25T20:29:15.366Z,20.60
2017-08-25T20:31:43.158Z,20.60
2017-08-25T20:34:10.227Z,20.60
2017-08-25T20:36:37.764Z,20.70
2017-08-25T20:39:05.651Z,21.00
2017-08-25T20:41:32.739Z,20.60
2017-08-25T22:05:57.701Z,21.00
2017-08-25T22:08:24.723Z,20.00
2017-08-25T22:10:51.783Z,20.00
2017-08-25T22:13:18.915Z,20.00
2017-08-25T22:15:46.003Z,19.50
2017-08-25T22:18:13.079Z,19.20
2017-08-25T22:20:40.185Z,19.00
2017-08-25T22:23:07.228Z,19.10
2017-08-25T22:25:34.263Z,19.30
2017-08-25T22:28:01.291Z,19.40
2017-08-25T22:30:28.348Z,19.20
2017-08-25T22:32:55.385Z,19.00
2017-08-25T22:35:22.738Z,19.30
2017-08-25T22:37:49.807Z,19.40
2017-08-25T22:40:16.819Z,19.00
2017-08-25T22:42:43.861Z,19.10
2017-08-25T22:45:10.911Z,19.10
2017-08-25T22:47:37.934Z,19.20
2017-08-25T22:50:04.979Z,19.30
2017-08-25T22:52:32.042Z,19.40
2017-08-25T22:54:59.070Z,19.40
2017-08-25T22:57:26.126Z,19.30
2017-08-25T22:59:53.398Z,19.40
2017-08-25T23:02:21.219Z,19.20
2017-08-25T23:04:48.234Z,19.20
2017-08-25T23:07:15.287Z,18.80
2017-08-25T23:09:42.894Z,18.50
2017-08-25T23:12:09.907Z,18.70
2017-08-25T23:14:36.919Z,18.90
2017-08-25T23:17:03.979Z,19.00
2017-08-25T23:19:30.994Z,19.10
2017-08-25T23:21:58.060Z,19.10
2017-08-25T23:24:25.120Z,19.00
2017-08-25T23:26:52.937Z,18.70
2017-08-25T23:29:19.999Z,18.70
2017-08-25T23:31:47.020Z,18.50
2017-08-25T23:34:14.070Z,18.50
2017-08-25T23:36:41.195Z,18.70
2017-08-25T23:39:08.223Z,18.90
2017-08-25T23:41:35.275Z,19.00
2017-08-25T23:44:02.331Z,19.00
2017-08-25T23:46:29.404Z,18.70
2017-08-25T23:48:56.425Z,18.30
2017-08-25T23:51:23.442Z,18.60
2017-08-25T23:53:50.481Z,18.70
2017-08-25T23:56:17.567Z,18.70
2017-08-25T23:58:45.343Z,18.80
